createdAt,value
2018-10-18T00:01:18.145Z,55.80
2018-10-18T00:03:45.699Z,52.87
2018-10-18T00:06:13.260Z,56.23
2018-10-18T00:08:40.805Z,57.17
2018-10-18T00:11:08.377Z,58.17
2018-10-18T00:13:35.917Z,56.77
2018-10-18T00:16:03.579Z,56.43
2018-10-18T00:18:31.113Z,55.40
2018-10-18T00:20:58.761Z,55.53
2018-10-18T00:23:26.325Z,57.50
2018-10-18T00:25:53.916Z,55.40
2018-10-18T00:28:21.713Z,57.10
2018-10-18T00:30:49.299Z,56.57
2018-10-18T00:33:17.181Z,58.10
2018-10-18T00:35:44.733Z,56.00
2018-10-18T00:38:12.402Z,54.53
2018-10-18T00:40:39.848Z,55.43
2018-10-18T00:43:07.433Z,52.13
2018-10-18T00:45:35.014Z,52.67
2018-10-18T00:48:02.679Z,52.80
2018-10-18T00:50:30.367Z,51.77
2018-10-18T00:52:57.925Z,51.57
2018-10-18T00:55:25.461Z,48.97
2018-10-18T00:57:53.213Z,48.80
2018-10-18T01:00:20.766Z,49.93
2018-10-18T01:02:48.308Z,49.90
2018-10-18T01:05:15.865Z,47.73
2018-10-18T01:07:43.424Z,46.37
2018-10-18T01:10:10.962Z,44.23
2018-10-18T01:12:38.554Z,44.43
2018-10-18T01:15:06.489Z,43.63
2018-10-18T01:17:34.046Z,44.20
2018-10-18T01:20:01.661Z,43.07
2018-10-18T01:22:29.304Z,41.63
2018-10-18T01:24:56.841Z,40.73
2018-10-18T01:27:24.408Z,40.50
2018-10-18T01:29:52.056Z,41.03
2018-10-18T01:32:19.605Z,40.90
2018-10-18T01:34:47.133Z,39.70
2018-10-18T01:37:14.689Z,38.50
2018-10-18T01:39:42.214Z,38.67
2018-10-18T01:42:09.836Z,39.43
2018-10-18T01:44:37.397Z,38.90
2018-10-18T01:47:05.094Z,38.33
2018-10-18T01:49:32.965Z,39.43
2018-10-18T01:52:00.505Z,38.83
2018-10-18T01:54:28.329Z,37.77
2018-10-18T01:56:55.896Z,38.73
2018-10-18T01:59:23.445Z,38.23
2018-10-18T02:01:50.994Z,39.13
2018-10-18T02:04:18.521Z,36.27
2018-10-18T02:06:46.081Z,37.93
2018-10-18T02:09:13.634Z,39.03
2018-10-18T02:11:41.725Z,37.03
2018-10-18T02:14:09.409Z,38.00
2018-10-18T02:16:37.017Z,37.43
2018-10-18T02:19:04.978Z,36.33
2018-10-18T02:21:32.601Z,36.43
2018-10-18T02:24:00.201Z,36.73
2018-10-18T02:26:27.753Z,37.40
2018-10-18T02:28:55.301Z,37.13
2018-10-18T02:31:22.836Z,38.30
2018-10-18T02:33:50.373Z,38.03
2018-10-18T02:36:20.873Z,38.07
2018-10-18T02:38:48.401Z,37.37
2018-10-18T02:41:15.945Z,38.13
2018-10-18T02:43:43.523Z,38.23
2018-10-18T02:46:11.093Z,36.10
2018-10-18T02:48:38.714Z,37.53
2018-10-18T02:51:06.262Z,36.23
2018-10-18T02:53:34.076Z,36.77
2018-10-18T02:56:01.616Z,37.50
2018-10-18T02:58:29.182Z,37.80
2018-10-18T03:00:56.733Z,38.93
2018-10-18T03:03:24.309Z,39.17
2018-10-18T03:05:52.443Z,38.90
2018-10-18T03:08:19.988Z,40.27
2018-10-18T03:10:47.545Z,40.43
2018-10-18T03:13:15.081Z,40.23
2018-10-18T03:15:42.626Z,40.27
2018-10-18T03:18:10.276Z,41.73
2018-10-18T03:20:37.782Z,42.47
2018-10-18T03:23:05.654Z,42.17
2018-10-18T03:25:46.125Z,43.30
2018-10-18T03:28:13.709Z,43.23
2018-10-18T03:30:41.253Z,44.20
2018-10-18T03:33:09.741Z,47.83
2018-10-18T03:35:37.369Z,48.97
2018-10-18T03:38:04.933Z,50.03
2018-10-18T03:40:32.473Z,50.13
2018-10-18T03:43:00.047Z,51.40
2018-10-18T03:45:27.853Z,51.87
2018-10-18T03:47:55.436Z,53.77
2018-10-18T03:50:23.031Z,50.33
2018-10-18T03:52:50.684Z,48.07
2018-10-18T03:55:18.225Z,47.07
2018-10-18T03:57:45.762Z,48.57
2018-10-18T04:00:13.374Z,46.83
2018-10-18T04:02:40.905Z,46.93
2018-10-18T04:05:09.369Z,46.97
2018-10-18T04:07:37.520Z,45.07
2018-10-18T04:10:05.714Z,44.30
2018-10-18T04:12:33.271Z,43.20
2018-10-18T04:15:00.862Z,43.20
2018-10-18T04:17:28.406Z,42.50
2018-10-18T04:19:55.986Z,41.17
2018-10-18T04:22:23.574Z,41.60
2018-10-18T04:24:51.169Z,41.17
2018-10-18T04:27:18.743Z,41.57
2018-10-18T04:29:46.288Z,41.77
2018-10-18T04:32:13.857Z,40.07
2018-10-18T04:34:41.409Z,40.93
2018-10-18T04:37:08.970Z,53.17
2018-10-18T04:39:36.590Z,50.67
2018-10-18T04:42:04.210Z,39.83
2018-10-18T04:44:31.902Z,39.10
2018-10-18T04:46:59.485Z,38.00
2018-10-18T04:49:27.032Z,37.10
2018-10-18T04:51:54.584Z,37.07
2018-10-18T04:54:22.159Z,36.70
2018-10-18T04:56:49.744Z,36.67
2018-10-18T04:59:17.286Z,37.47
2018-10-18T05:01:44.846Z,36.50
2018-10-18T05:04:12.431Z,36.63
2018-10-18T05:06:39.941Z,36.93
2018-10-18T05:09:08.303Z,38.13
2018-10-18T05:11:35.897Z,36.37
2018-10-18T05:14:03.748Z,37.47
2018-10-18T05:16:31.308Z,35.77
2018-10-18T05:18:58.929Z,37.50
2018-10-18T05:21:26.534Z,37.73
2018-10-18T05:23:54.125Z,37.50
2018-10-18T05:26:21.662Z,37.50
2018-10-18T05:28:49.220Z,37.50
2018-10-18T05:31:16.881Z,37.53
2018-10-18T05:33:44.402Z,66.80
2018-10-18T05:36:11.978Z,38.97
2018-10-18T05:38:39.666Z,38.10
2018-10-18T05:41:07.941Z,38.73
2018-10-18T05:43:37.642Z,37.40
2018-10-18T05:46:07.889Z,37.50
2018-10-18T05:48:35.579Z,36.60
2018-10-18T05:51:03.168Z,36.13
2018-10-18T05:53:30.742Z,36.37
2018-10-18T05:55:58.557Z,36.97
2018-10-18T05:58:26.229Z,37.40
2018-10-18T06:00:53.859Z,37.40
2018-10-18T06:03:21.393Z,35.50
2018-10-18T06:05:49.148Z,34.50
2018-10-18T06:08:17.789Z,35.93
2018-10-18T06:10:57.013Z,36.57
2018-10-18T06:13:24.562Z,36.77
2018-10-18T06:15:52.109Z,34.23
2018-10-18T06:18:19.622Z,35.43
2018-10-18T06:20:47.733Z,36.00
2018-10-18T06:23:15.334Z,36.00
2018-10-18T06:25:42.972Z,34.90
2018-10-18T06:28:10.606Z,34.43
2018-10-18T06:30:38.212Z,36.53
2018-10-18T06:33:05.845Z,33.57
2018-10-18T06:35:33.449Z,34.47
2018-10-18T06:38:00.977Z,35.70
2018-10-18T06:40:28.573Z,34.70
2018-10-18T06:42:56.191Z,35.43
2018-10-18T06:45:23.696Z,35.40
2018-10-18T06:47:51.445Z,34.43
2018-10-18T06:50:19.940Z,34.60
2018-10-18T06:52:47.524Z,34.00
2018-10-18T06:55:15.237Z,33.87
2018-10-18T06:57:43.328Z,34.90
2018-10-18T07:00:14.259Z,34.33
2018-10-18T07:02:42.088Z,36.10
2018-10-18T07:05:10.978Z,34.37
2018-10-18T07:07:38.571Z,33.43
2018-10-18T07:10:06.268Z,34.37
2018-10-18T07:12:34.025Z,35.07
2018-10-18T07:15:01.543Z,34.33
2018-10-18T07:17:29.159Z,33.20
2018-10-18T07:19:56.677Z,33.60
2018-10-18T07:22:28.766Z,32.33
2018-10-18T07:24:56.301Z,33.03
2018-10-18T07:27:23.860Z,32.23
2018-10-18T07:29:51.389Z,31.23
2018-10-18T07:32:18.980Z,32.00
2018-10-18T07:34:46.537Z,33.13
2018-10-18T07:37:14.245Z,32.73
2018-10-18T07:39:41.810Z,33.60
2018-10-18T07:42:09.402Z,34.37
2018-10-18T07:44:36.944Z,34.40
2018-10-18T07:47:05.115Z,49.40
2018-10-18T07:49:32.674Z,38.00
2018-10-18T07:52:01.725Z,35.20
2018-10-18T07:54:29.301Z,33.97
2018-10-18T07:56:56.916Z,33.23
2018-10-18T07:59:24.658Z,34.60
2018-10-18T08:01:52.501Z,35.17
2018-10-18T08:04:20.033Z,34.40
2018-10-18T08:06:47.605Z,36.00
2018-10-18T08:09:15.149Z,36.27
2018-10-18T08:11:42.734Z,36.13
2018-10-18T08:14:10.966Z,37.27
2018-10-18T08:16:38.581Z,39.17
2018-10-18T08:19:06.255Z,36.17
2018-10-18T08:21:33.870Z,35.90
2018-10-18T08:24:01.389Z,36.77
2018-10-18T08:26:29.427Z,35.10
2018-10-18T08:28:56.717Z,36.50
2018-10-18T08:31:24.368Z,35.23
2018-10-18T08:33:51.821Z,35.20
2018-10-18T08:36:19.389Z,35.23
2018-10-18T08:38:47.101Z,35.53
2018-10-18T08:41:14.921Z,32.23
2018-10-18T08:43:42.487Z,38.47
2018-10-18T08:46:10.427Z,34.77
2018-10-18T08:48:37.994Z,33.07
2018-10-18T08:51:05.635Z,33.70
2018-10-18T08:53:33.985Z,34.80
2018-10-18T08:56:03.718Z,33.33
2018-10-18T08:58:31.270Z,34.17
2018-10-18T09:00:58.958Z,33.87
2018-10-18T09:03:26.541Z,33.43
2018-10-18T09:05:54.158Z,33.77
2018-10-18T09:08:21.771Z,34.63
2018-10-18T09:10:49.235Z,33.70
2018-10-18T09:13:16.836Z,33.90
2018-10-18T09:15:44.309Z,34.70
2018-10-18T09:18:11.871Z,34.37
2018-10-18T09:20:39.449Z,34.77
2018-10-18T09:23:07.261Z,34.03
2018-10-18T09:25:34.846Z,33.87
2018-10-18T09:28:02.778Z,35.80
2018-10-18T09:30:30.864Z,34.47
2018-10-18T09:32:57.977Z,33.97
2018-10-18T09:35:25.684Z,33.13
2018-10-18T09:37:53.231Z,35.37
2018-10-18T09:40:21.237Z,33.70
2018-10-18T09:42:49.466Z,34.13
2018-10-18T09:45:17.148Z,30.83
2018-10-18T09:47:44.693Z,30.40
2018-10-18T09:50:12.547Z,31.30
2018-10-18T09:52:40.085Z,31.90
2018-10-18T09:55:09.379Z,31.53
2018-10-18T09:57:37.701Z,32.30
2018-10-18T10:00:05.801Z,31.13
2018-10-18T10:02:40.794Z,32.30
2018-10-18T10:05:09.058Z,31.43
2018-10-18T10:07:36.826Z,31.30
2018-10-18T10:10:04.497Z,31.07
2018-10-18T10:12:32.070Z,40.53
2018-10-18T10:14:59.594Z,38.10
2018-10-18T10:17:27.218Z,31.77
2018-10-18T10:19:54.758Z,31.67
2018-10-18T10:22:22.313Z,32.03
2018-10-18T10:24:49.897Z,31.73
2018-10-18T10:27:17.489Z,31.43
2018-10-18T10:29:45.029Z,30.90
2018-10-18T10:32:12.633Z,31.20
2018-10-18T10:34:40.419Z,30.07
2018-10-18T10:37:08.104Z,30.03
2018-10-18T10:39:35.599Z,31.13
2018-10-18T10:42:03.301Z,29.80
2018-10-18T10:44:30.857Z,32.13
2018-10-18T10:46:58.457Z,31.47
2018-10-18T10:49:26.016Z,30.27
2018-10-18T10:51:53.900Z,29.87
2018-10-18T10:54:22.910Z,29.03
2018-10-18T10:56:50.657Z,29.40
2018-10-18T10:59:19.377Z,29.83
2018-10-18T11:01:47.012Z,28.57
2018-10-18T11:04:14.617Z,29.23
2018-10-18T11:06:42.460Z,28.00
2018-10-18T11:09:10.805Z,32.27
2018-10-18T11:11:38.296Z,34.67
2018-10-18T11:14:05.925Z,27.73
2018-10-18T11:16:37.452Z,28.63
2018-10-18T11:19:05.090Z,27.83
2018-10-18T11:21:32.885Z,27.60
2018-10-18T11:24:00.528Z,28.97
2018-10-18T11:26:28.173Z,26.97
2018-10-18T11:28:55.892Z,29.30
2018-10-18T11:31:23.506Z,28.60
2018-10-18T11:33:51.085Z,28.37
2018-10-18T11:36:18.725Z,26.43
2018-10-18T11:38:46.577Z,27.97
2018-10-18T11:41:14.172Z,28.07
2018-10-18T11:43:41.757Z,29.07
2018-10-18T11:46:09.334Z,29.40
2018-10-18T11:48:36.929Z,27.63
2018-10-18T11:51:04.893Z,31.50
2018-10-18T11:53:33.200Z,28.87
2018-10-18T11:56:00.854Z,28.53
2018-10-18T11:58:28.376Z,27.87
2018-10-18T12:00:56.081Z,28.23
2018-10-18T12:03:23.649Z,30.20
2018-10-18T12:05:51.184Z,30.40
2018-10-18T12:08:18.889Z,30.40
2018-10-18T12:11:01.053Z,30.83
2018-10-18T12:13:28.597Z,31.43
2018-10-18T12:15:56.272Z,32.57
2018-10-18T12:18:23.921Z,33.33
2018-10-18T12:20:51.445Z,35.87
2018-10-18T12:23:19.382Z,32.77
2018-10-18T12:25:46.882Z,31.97
2018-10-18T12:28:14.453Z,33.27
2018-10-18T12:30:42.014Z,29.50
2018-10-18T12:33:09.566Z,31.67
2018-10-18T12:35:37.136Z,33.80
2018-10-18T12:38:04.938Z,33.73
2018-10-18T12:40:32.975Z,66.20
2018-10-18T12:43:00.425Z,32.83
2018-10-18T12:45:28.211Z,29.60
2018-10-18T12:47:55.925Z,30.57
2018-10-18T12:50:23.500Z,27.10
2018-10-18T12:52:51.737Z,27.70
2018-10-18T12:55:19.361Z,26.97
2018-10-18T12:57:47.167Z,25.60
2018-10-18T13:00:14.892Z,24.93
2018-10-18T13:02:42.408Z,23.17
2018-10-18T13:05:10.686Z,21.50
2018-10-18T13:07:38.358Z,24.77
2018-10-18T13:10:07.453Z,21.60
2018-10-18T13:12:35.127Z,17.63
2018-10-18T13:15:02.836Z,17.37
2018-10-18T13:17:30.577Z,15.70
2018-10-18T13:19:58.369Z,14.37
2018-10-18T13:22:25.985Z,13.93
2018-10-18T13:24:53.700Z,12.43
2018-10-18T13:27:21.385Z,12.00
2018-10-18T13:29:49.018Z,11.90
2018-10-18T13:32:16.744Z,12.90
2018-10-18T13:34:44.292Z,12.90
2018-10-18T13:37:11.842Z,13.40
2018-10-18T13:39:40.301Z,14.87
2018-10-18T13:42:07.997Z,14.30
2018-10-18T13:44:35.629Z,14.90
2018-10-18T13:47:03.414Z,14.57
2018-10-18T13:49:31.437Z,14.27
2018-10-18T13:51:59.186Z,13.87
2018-10-18T13:54:27.268Z,12.63
2018-10-18T13:56:55.358Z,12.47
2018-10-18T13:59:34.328Z,12.40
2018-10-18T14:02:02.062Z,11.07
2018-10-18T14:04:29.685Z,11.50
2018-10-18T14:06:57.277Z,11.40
2018-10-18T14:09:25.786Z,10.77
2018-10-18T14:11:53.361Z,21.53
2018-10-18T14:14:20.890Z,12.10
2018-10-18T14:16:48.454Z,10.33
2018-10-18T14:19:16.004Z,9.47
2018-10-18T14:21:43.850Z,9.00
2018-10-18T14:24:11.404Z,8.97
2018-10-18T14:26:40.910Z,9.03
2018-10-18T14:29:08.481Z,8.23
2018-10-18T14:31:36.086Z,7.17
2018-10-18T14:34:04.021Z,6.23
2018-10-18T14:36:31.908Z,6.07
2018-10-18T14:38:59.671Z,5.33
2018-10-18T14:41:27.214Z,4.77
2018-10-18T14:43:55.031Z,4.57
2018-10-18T14:46:29.533Z,4.20
2018-10-18T14:48:59.093Z,4.40
2018-10-18T14:51:32.255Z,4.80
2018-10-18T14:54:01.354Z,4.70
2018-10-18T14:56:30.777Z,5.00
2018-10-18T14:59:00.542Z,5.33
2018-10-18T15:01:30.099Z,6.53
2018-10-18T15:03:59.492Z,5.83
2018-10-18T15:06:28.959Z,6.17
2018-10-18T15:08:57.748Z,6.30
2018-10-18T15:11:26.521Z,5.83
2018-10-18T15:13:55.945Z,5.90
2018-10-18T15:16:25.380Z,4.90
2018-10-18T15:18:54.198Z,4.47
2018-10-18T15:21:23.585Z,4.50
2018-10-18T15:23:53.479Z,4.57
2018-10-18T15:26:22.882Z,3.57
2018-10-18T15:28:52.579Z,39.30
2018-10-18T15:31:24.939Z,5.60
2018-10-18T15:33:53.390Z,4.83
2018-10-18T15:36:22.223Z,5.40
2018-10-18T15:38:51.918Z,5.97
2018-10-18T15:41:20.995Z,5.70
2018-10-18T15:43:49.959Z,5.83
2018-10-18T15:46:19.597Z,5.80
2018-10-18T15:48:51.380Z,5.73
2018-10-18T15:51:20.765Z,5.00
2018-10-18T15:53:49.634Z,5.03
2018-10-18T15:56:19.340Z,5.33
2018-10-18T15:58:48.886Z,5.13
2018-10-18T16:01:19.053Z,5.17
2018-10-18T16:03:48.714Z,5.30
2018-10-18T16:06:18.852Z,5.47
2018-10-18T16:08:47.691Z,5.07
2018-10-18T16:11:17.314Z,5.50
2018-10-18T16:13:49.806Z,5.47
2018-10-18T16:16:18.998Z,5.40
2018-10-18T16:18:48.153Z,5.47
2018-10-18T16:21:17.304Z,5.67
2018-10-18T16:23:46.283Z,5.03
2018-10-18T16:26:15.434Z,6.50
2018-10-18T16:28:44.587Z,12.00
2018-10-18T16:31:13.544Z,5.90
2018-10-18T16:33:43.290Z,4.27
2018-10-18T16:36:12.308Z,3.90
2018-10-18T16:38:41.022Z,3.40
2018-10-18T16:41:10.093Z,3.70
2018-10-18T16:43:38.746Z,3.90
2018-10-18T16:46:07.548Z,3.70
2018-10-18T16:48:39.841Z,3.40
2018-10-18T16:51:08.592Z,3.30
2018-10-18T16:53:38.009Z,3.70
2018-10-18T16:56:07.211Z,3.70
2018-10-18T16:58:36.592Z,3.53
2018-10-18T17:01:06.058Z,3.70
2018-10-18T17:03:35.104Z,3.50
2018-10-18T17:06:04.840Z,4.10
2018-10-18T17:08:34.228Z,4.07
2018-10-18T17:11:02.502Z,3.73
2018-10-18T17:14:34.271Z,4.00
2018-10-18T17:17:07.462Z,4.57
2018-10-18T17:19:36.184Z,4.47
2018-10-18T17:22:05.227Z,4.63
2018-10-18T17:24:34.505Z,4.80
2018-10-18T17:27:04.113Z,4.90
2018-10-18T17:29:33.523Z,5.00
2018-10-18T17:32:02.972Z,11.40
2018-10-18T17:34:33.580Z,34.47
2018-10-18T17:37:02.321Z,6.37
2018-10-18T17:39:31.964Z,5.33
2018-10-18T17:42:02.808Z,5.43
2018-10-18T17:44:31.958Z,5.73
2018-10-18T17:47:01.065Z,12.43
2018-10-18T17:49:29.816Z,18.70
2018-10-18T17:51:59.292Z,13.80
2018-10-18T17:54:28.569Z,10.27
2018-10-18T17:56:58.814Z,9.27
2018-10-18T17:59:28.117Z,8.70
2018-10-18T18:01:57.095Z,7.60
2018-10-18T18:04:25.947Z,7.57
2018-10-18T18:06:54.782Z,7.13
2018-10-18T18:09:24.212Z,6.50
2018-10-18T18:11:53.657Z,6.30
2018-10-18T18:14:23.031Z,6.03
2018-10-18T18:16:50.595Z,5.80
2018-10-18T18:19:18.229Z,6.33
2018-10-18T18:21:45.782Z,5.33
2018-10-18T18:24:13.501Z,26.13
2018-10-18T18:26:45.346Z,60.60
2018-10-18T18:29:08.641Z,11.53
2018-10-18T18:31:36.234Z,6.23
2018-10-18T18:34:03.851Z,5.50
2018-10-18T18:36:32.126Z,5.23
2018-10-18T18:39:00.875Z,5.70
2018-10-18T18:41:29.650Z,5.47
2018-10-18T18:43:57.357Z,5.73
2018-10-18T18:46:26.565Z,5.60
2018-10-18T18:48:54.122Z,18.70
2018-10-18T18:51:21.705Z,130.33
2018-10-18T18:53:49.294Z,28.10
2018-10-18T18:56:16.897Z,8.30
2018-10-18T18:58:44.446Z,6.57
2018-10-18T19:01:12.084Z,6.00
2018-10-18T19:03:39.744Z,5.50
2018-10-18T19:06:07.321Z,5.87
2018-10-18T19:08:34.853Z,6.60
2018-10-18T19:11:03.278Z,6.60
2018-10-18T19:13:30.897Z,7.07
2018-10-18T19:15:58.413Z,7.43
2018-10-18T19:18:25.957Z,7.30
2018-10-18T19:20:53.605Z,7.67
2018-10-18T19:23:21.224Z,7.60
2018-10-18T19:25:48.710Z,7.10
2018-10-18T19:28:16.393Z,7.00
2018-10-18T19:30:43.958Z,7.60
2018-10-18T19:33:11.536Z,8.03
2018-10-18T19:35:40.038Z,8.17
2018-10-18T19:38:07.629Z,8.43
2018-10-18T19:40:35.169Z,8.30
2018-10-18T19:43:02.738Z,8.43
2018-10-18T19:45:30.359Z,8.37
2018-10-18T19:47:57.869Z,8.87
2018-10-18T19:50:25.604Z,9.00
2018-10-18T19:52:53.317Z,10.47
2018-10-18T19:55:20.885Z,9.93
2018-10-18T19:57:48.952Z,10.57
2018-10-18T20:00:16.672Z,12.57
2018-10-18T20:02:44.262Z,14.60
2018-10-18T20:05:12.033Z,13.93
2018-10-18T20:07:39.682Z,14.00
2018-10-18T20:10:07.638Z,13.30
2018-10-18T20:12:35.346Z,12.73
2018-10-18T20:15:03.201Z,12.27
2018-10-18T20:17:30.745Z,13.43
2018-10-18T20:19:58.677Z,13.10
2018-10-18T20:22:26.259Z,13.10
2018-10-18T20:24:53.907Z,64.03
2018-10-18T20:27:21.372Z,27.10
2018-10-18T20:29:48.917Z,17.50
2018-10-18T20:32:16.623Z,14.30
2018-10-18T20:34:44.193Z,13.70
2018-10-18T20:37:11.991Z,15.07
2018-10-18T20:39:39.612Z,14.10
2018-10-18T20:42:07.659Z,14.40
2018-10-18T20:44:35.204Z,15.00
2018-10-18T20:47:02.825Z,14.90
2018-10-18T20:49:30.361Z,13.80
2018-10-18T20:51:57.945Z,14.87
2018-10-18T20:54:25.963Z,15.23
2018-10-18T20:56:53.548Z,15.00
2018-10-18T20:59:21.098Z,52.73
2018-10-18T21:01:48.722Z,73.63
2018-10-18T21:04:16.286Z,22.27
2018-10-18T21:06:44.055Z,17.40
2018-10-18T21:09:11.472Z,16.30
2018-10-18T21:11:39.053Z,15.70
2018-10-18T21:14:07.226Z,16.77
2018-10-18T21:16:35.083Z,16.80
2018-10-18T21:19:03.165Z,17.07
2018-10-18T21:21:30.918Z,16.47
2018-10-18T21:23:58.573Z,17.27
2018-10-18T21:26:26.125Z,16.77
2018-10-18T21:28:53.928Z,17.20
2018-10-18T21:31:21.982Z,16.77
2018-10-18T21:33:49.574Z,18.17
2018-10-18T21:36:17.271Z,17.80
2018-10-18T21:38:44.871Z,18.70
2018-10-18T21:41:12.534Z,18.17
2018-10-18T21:43:40.084Z,18.97
2018-10-18T21:46:07.881Z,18.70
2018-10-18T21:48:36.166Z,18.77
2018-10-18T21:51:03.768Z,20.00
2018-10-18T21:53:31.361Z,22.53
2018-10-18T21:55:58.988Z,20.83
2018-10-18T21:58:26.611Z,20.40
2018-10-18T22:00:54.341Z,20.47
2018-10-18T22:03:22.086Z,20.23
2018-10-18T22:05:49.676Z,19.30
2018-10-18T22:08:17.288Z,20.13
2018-10-18T22:10:44.853Z,19.87
2018-10-18T22:13:12.454Z,20.00
2018-10-18T22:15:40.049Z,20.30
2018-10-18T22:18:07.670Z,19.67
2018-10-18T22:20:35.748Z,20.20
2018-10-18T22:23:03.471Z,19.47
2018-10-18T22:25:31.246Z,20.50
2018-10-18T22:27:58.877Z,19.90
2018-10-18T22:30:26.468Z,19.80
2018-10-18T22:32:54.230Z,19.93
2018-10-18T22:35:22.279Z,20.07
2018-10-18T22:37:49.926Z,21.80
2018-10-18T22:40:18.071Z,20.60
2018-10-18T22:42:45.641Z,19.63
2018-10-18T22:45:13.323Z,18.73
2018-10-18T22:47:40.845Z,20.93
2018-10-18T22:50:08.493Z,19.70
2018-10-18T22:52:36.090Z,19.67
2018-10-18T22:55:03.993Z,20.20
2018-10-18T22:57:31.574Z,20.20
2018-10-18T22:59:59.283Z,19.53
2018-10-18T23:02:26.865Z,20.27
2018-10-18T23:04:54.511Z,20.40
2018-10-18T23:07:22.053Z,19.20
2018-10-18T23:09:49.730Z,18.57
2018-10-18T23:12:17.549Z,19.93
2018-10-18T23:14:45.141Z,18.03
2018-10-18T23:17:12.779Z,19.23
2018-10-18T23:19:40.353Z,19.63
2018-10-18T23:22:08.372Z,17.80
2018-10-18T23:24:37.617Z,16.30
2018-10-18T23:27:06.228Z,13.50
2018-10-18T23:29:33.817Z,12.97
2018-10-18T23:32:01.397Z,12.30
2018-10-18T23:34:29.086Z,10.97
2018-10-18T23:36:57.578Z,10.63
2018-10-18T23:39:25.524Z,11.30
2018-10-18T23:41:53.099Z,10.80
2018-10-18T23:44:20.810Z,11.50
2018-10-18T23:46:48.761Z,12.53
2018-10-18T23:49:16.485Z,13.87
2018-10-18T23:51:44.065Z,15.20
2018-10-18T23:54:11.675Z,17.23
2018-10-18T23:56:39.462Z,18.43
2018-10-18T23:59:07.119Z,18.87
